Charlotte, North Carolina
Current Conditions -  °F | °C
As of 11:52 PM on Friday 24 Oct 2014 (Local Time) from KCLT Reporting Station
Clear Clear  
Wind Chill: 50°   Ceiling: Unl
Heat Index: 50°   Visibility: 10mi
Dew Point: 45°   Wind: 0mph
Humidity: 83%   Direction: NA
Pressure: 30.02"   Gusts: NA
Location:  35.22°N, 80.84°W
Report Text: KCLT 250352Z 00000KT 10SM CLR 10/07 A3002 RMK AO2 SLP162 T01000072
Loading
Personal Weather Stations






























Interactive Weather Map New forecast layout! Learn more

10-Day Weather Forecast

Advertisements
Track Severe Weather on mobile